sensor_id;sensor_type;location;lat;lon;timestamp;P1;durP1;ratioP1;P2;durP2;ratioP2
10493;SDS011;5294;49.410;8.698;2022-12-07T00:00:47;12.03;;;10.93;;
10493;SDS011;5294;49.410;8.698;2022-12-07T00:03:13;10.83;;;9.83;;
10493;SDS011;5294;49.410;8.698;2022-12-07T00:05:39;11.70;;;10.60;;
10493;SDS011;5294;49.410;8.698;2022-12-07T00:08:05;11.70;;;10.60;;
10493;SDS011;5294;49.410;8.698;2022-12-07T00:10:33;11.70;;;10.70;;
10493;SDS011;5294;49.410;8.698;2022-12-07T00:12:59;11.80;;;10.33;;
10493;SDS011;5294;49.410;8.698;2022-12-07T00:15:25;11.43;;;10.30;;
10493;SDS011;5294;49.410;8.698;2022-12-07T00:17:53;11.53;;;10.53;;
10493;SDS011;5294;49.410;8.698;2022-12-07T00:20:21;12.83;;;11.53;;
10493;SDS011;5294;49.410;8.698;2022-12-07T00:22:47;11.77;;;10.67;;
10493;SDS011;5294;49.410;8.698;2022-12-07T00:25:13;12.30;;;11.10;;
10493;SDS011;5294;49.410;8.698;2022-12-07T00:27:39;11.80;;;10.70;;
10493;SDS011;5294;49.410;8.698;2022-12-07T00:30:05;11.60;;;10.50;;
10493;SDS011;5294;49.410;8.698;2022-12-07T00:32:31;12.47;;;11.27;;
10493;SDS011;5294;49.410;8.698;2022-12-07T00:34:57;12.53;;;11.33;;
10493;SDS011;5294;49.410;8.698;2022-12-07T00:37:26;12.10;;;10.97;;
10493;SDS011;5294;49.410;8.698;2022-12-07T00:39:52;12.03;;;10.93;;
10493;SDS011;5294;49.410;8.698;2022-12-07T00:42:18;12.13;;;11.03;;
10493;SDS011;5294;49.410;8.698;2022-12-07T00:44:44;12.67;;;11.47;;
10493;SDS011;5294;49.410;8.698;2022-12-07T00:47:10;13.20;;;12.00;;
10493;SDS011;5294;49.410;8.698;2022-12-07T00:49:38;12.93;;;11.70;;
10493;SDS011;5294;49.410;8.698;2022-12-07T00:52:04;11.90;;;10.80;;
10493;SDS011;5294;49.410;8.698;2022-12-07T00:54:30;11.90;;;10.80;;
10493;SDS011;5294;49.410;8.698;2022-12-07T00:56:58;11.97;;;10.77;;
10493;SDS011;5294;49.410;8.698;2022-12-07T00:59:24;11.63;;;10.57;;
10493;SDS011;5294;49.410;8.698;2022-12-07T01:01:50;12.83;;;11.63;;
10493;SDS011;5294;49.410;8.698;2022-12-07T01:04:16;13.37;;;12.10;;
10493;SDS011;5294;49.410;8.698;2022-12-07T01:06:42;12.63;;;11.43;;
10493;SDS011;5294;49.410;8.698;2022-12-07T01:09:08;12.83;;;11.63;;
10493;SDS011;5294;49.410;8.698;2022-12-07T01:11:34;13.03;;;11.73;;
10493;SDS011;5294;49.410;8.698;2022-12-07T01:14:00;13.87;;;12.53;;
10493;SDS011;5294;49.410;8.698;2022-12-07T01:16:28;14.30;;;12.90;;
10493;SDS011;5294;49.410;8.698;2022-12-07T01:18:55;13.70;;;12.40;;
10493;SDS011;5294;49.410;8.698;2022-12-07T01:21:28;13.33;;;12.13;;
10493;SDS011;5294;49.410;8.698;2022-12-07T01:23:56;13.03;;;11.80;;
10493;SDS011;5294;49.410;8.698;2022-12-07T01:26:22;12.40;;;11.30;;
10493;SDS011;5294;49.410;8.698;2022-12-07T01:28:49;12.97;;;11.73;;
10493;SDS011;5294;49.410;8.698;2022-12-07T01:31:16;12.77;;;11.47;;
10493;SDS011;5294;49.410;8.698;2022-12-07T01:33:44;13.60;;;12.30;;
10493;SDS011;5294;49.410;8.698;2022-12-07T01:38:42;13.23;;;11.93;;
10493;SDS011;5294;49.410;8.698;2022-12-07T01:41:13;12.67;;;11.47;;
10493;SDS011;5294;49.410;8.698;2022-12-07T01:46:26;13.50;;;12.30;;
10493;SDS011;5294;49.410;8.698;2022-12-07T01:48:52;13.70;;;12.30;;
10493;SDS011;5294;49.410;8.698;2022-12-07T01:51:18;13.30;;;12.00;;
10493;SDS011;5294;49.410;8.698;2022-12-07T01:53:49;13.43;;;12.13;;
10493;SDS011;5294;49.410;8.698;2022-12-07T01:56:18;13.17;;;11.97;;
10493;SDS011;5294;49.410;8.698;2022-12-07T01:58:45;13.13;;;11.93;;
10493;SDS011;5294;49.410;8.698;2022-12-07T02:01:11;13.97;;;12.67;;
10493;SDS011;5294;49.410;8.698;2022-12-07T02:03:41;12.90;;;11.63;;
10493;SDS011;5294;49.410;8.698;2022-12-07T02:06:07;12.03;;;11.00;;
10493;SDS011;5294;49.410;8.698;2022-12-07T02:08:33;12.50;;;11.30;;
10493;SDS011;5294;49.410;8.698;2022-12-07T02:11:00;11.53;;;10.43;;
10493;SDS011;5294;49.410;8.698;2022-12-07T02:13:30;13.07;;;11.80;;
10493;SDS011;5294;49.410;8.698;2022-12-07T02:16:03;12.57;;;11.37;;
10493;SDS011;5294;49.410;8.698;2022-12-07T02:18:48;12.03;;;10.83;;
10493;SDS011;5294;49.410;8.698;2022-12-07T02:26:50;11.30;;;10.20;;
10493;SDS011;5294;49.410;8.698;2022-12-07T02:29:24;12.43;;;11.27;;
10493;SDS011;5294;49.410;8.698;2022-12-07T02:32:05;12.93;;;11.70;;
10493;SDS011;5294;49.410;8.698;2022-12-07T02:37:00;12.10;;;10.90;;
10493;SDS011;5294;49.410;8.698;2022-12-07T02:41:59;11.97;;;10.77;;
10493;SDS011;5294;49.410;8.698;2022-12-07T02:44:27;11.33;;;10.23;;
10493;SDS011;5294;49.410;8.698;2022-12-07T02:46:54;11.53;;;10.43;;
10493;SDS011;5294;49.410;8.698;2022-12-07T02:49:24;11.23;;;10.10;;
10493;SDS011;5294;49.410;8.698;2022-12-07T02:51:53;10.97;;;9.97;;
10493;SDS011;5294;49.410;8.698;2022-12-07T02:54:20;10.77;;;9.80;;
10493;SDS011;5294;49.410;8.698;2022-12-07T03:04:37;12.40;;;11.20;;
10493;SDS011;5294;49.410;8.698;2022-12-07T03:07:06;12.37;;;11.07;;
10493;SDS011;5294;49.410;8.698;2022-12-07T03:09:39;13.13;;;11.73;;
10493;SDS011;5294;49.410;8.698;2022-12-07T03:12:10;12.30;;;10.97;;
10493;SDS011;5294;49.410;8.698;2022-12-07T03:14:40;11.60;;;10.60;;
10493;SDS011;5294;49.410;8.698;2022-12-07T03:17:13;11.73;;;10.67;;
10493;SDS011;5294;49.410;8.698;2022-12-07T03:19:46;11.93;;;10.83;;
10493;SDS011;5294;49.410;8.698;2022-12-07T03:22:16;11.60;;;10.50;;
10493;SDS011;5294;49.410;8.698;2022-12-07T03:24:47;11.27;;;10.20;;
10493;SDS011;5294;49.410;8.698;2022-12-07T03:27:16;11.23;;;10.07;;
10493;SDS011;5294;49.410;8.698;2022-12-07T03:29:44;11.77;;;10.67;;
10493;SDS011;5294;49.410;8.698;2022-12-07T03:32:21;11.17;;;10.17;;
10493;SDS011;5294;49.410;8.698;2022-12-07T03:35:31;11.23;;;10.13;;
10493;SDS011;5294;49.410;8.698;2022-12-07T03:37:53;11.30;;;10.20;;
10493;SDS011;5294;49.410;8.698;2022-12-07T03:40:29;11.77;;;10.10;;
10493;SDS011;5294;49.410;8.698;2022-12-07T03:42:58;11.77;;;10.67;;
10493;SDS011;5294;49.410;8.698;2022-12-07T03:45:30;12.07;;;10.93;;
10493;SDS011;5294;49.410;8.698;2022-12-07T03:48:02;11.43;;;10.33;;
10493;SDS011;5294;49.410;8.698;2022-12-07T03:50:35;11.27;;;10.27;;
10493;SDS011;5294;49.410;8.698;2022-12-07T03:53:15;10.93;;;9.93;;
10493;SDS011;5294;49.410;8.698;2022-12-07T03:55:44;12.00;;;10.90;;
10493;SDS011;5294;49.410;8.698;2022-12-07T03:58:12;11.27;;;10.27;;
10493;SDS011;5294;49.410;8.698;2022-12-07T04:00:40;11.53;;;10.43;;
10493;SDS011;5294;49.410;8.698;2022-12-07T04:03:06;10.93;;;9.93;;
10493;SDS011;5294;49.410;8.698;2022-12-07T04:05:32;10.57;;;9.57;;
10493;SDS011;5294;49.410;8.698;2022-12-07T04:07:59;10.60;;;9.60;;
10493;SDS011;5294;49.410;8.698;2022-12-07T04:10:25;10.63;;;9.63;;
10493;SDS011;5294;49.410;8.698;2022-12-07T04:12:51;11.27;;;10.17;;
10493;SDS011;5294;49.410;8.698;2022-12-07T04:15:19;10.70;;;9.70;;
10493;SDS011;5294;49.410;8.698;2022-12-07T04:17:45;10.67;;;9.67;;
10493;SDS011;5294;49.410;8.698;2022-12-07T04:20:13;10.83;;;9.93;;
10493;SDS011;5294;49.410;8.698;2022-12-07T04:22:39;11.43;;;10.33;;
10493;SDS011;5294;49.410;8.698;2022-12-07T04:25:08;10.77;;;9.87;;
10493;SDS011;5294;49.410;8.698;2022-12-07T04:27:34;10.17;;;9.20;;
10493;SDS011;5294;49.410;8.698;2022-12-07T04:30:00;10.10;;;9.03;;
10493;SDS011;5294;49.410;8.698;2022-12-07T04:32:26;10.30;;;9.33;;
10493;SDS011;5294;49.410;8.698;2022-12-07T04:34:54;10.37;;;9.37;;
10493;SDS011;5294;49.410;8.698;2022-12-07T04:37:22;10.83;;;9.83;;
10493;SDS011;5294;49.410;8.698;2022-12-07T04:39:51;10.23;;;9.33;;
10493;SDS011;5294;49.410;8.698;2022-12-07T04:42:19;10.73;;;9.73;;
10493;SDS011;5294;49.410;8.698;2022-12-07T04:44:45;10.80;;;9.80;;
10493;SDS011;5294;49.410;8.698;2022-12-07T04:47:11;9.93;;;9.13;;
10493;SDS011;5294;49.410;8.698;2022-12-07T04:49:37;10.93;;;9.83;;
10493;SDS011;5294;49.410;8.698;2022-12-07T04:52:03;11.07;;;10.07;;
10493;SDS011;5294;49.410;8.698;2022-12-07T04:54:29;10.97;;;9.97;;
10493;SDS011;5294;49.410;8.698;2022-12-07T04:56:55;10.60;;;9.70;;
10493;SDS011;5294;49.410;8.698;2022-12-07T04:59:21;10.13;;;9.27;;
10493;SDS011;5294;49.410;8.698;2022-12-07T05:01:52;10.47;;;9.53;;
10493;SDS011;5294;49.410;8.698;2022-12-07T05:04:18;10.70;;;9.73;;
10493;SDS011;5294;49.410;8.698;2022-12-07T05:06:44;10.97;;;10.07;;
10493;SDS011;5294;49.410;8.698;2022-12-07T05:09:10;11.00;;;10.10;;
10493;SDS011;5294;49.410;8.698;2022-12-07T05:11:36;10.03;;;9.23;;
10493;SDS011;5294;49.410;8.698;2022-12-07T05:14:09;11.63;;;10.63;;
10493;SDS011;5294;49.410;8.698;2022-12-07T05:16:36;11.00;;;10.00;;
10493;SDS011;5294;49.410;8.698;2022-12-07T05:19:02;11.37;;;10.37;;
10493;SDS011;5294;49.410;8.698;2022-12-07T05:21:28;10.63;;;9.70;;
10493;SDS011;5294;49.410;8.698;2022-12-07T05:23:59;11.50;;;10.40;;
10493;SDS011;5294;49.410;8.698;2022-12-07T05:26:27;11.67;;;10.67;;
10493;SDS011;5294;49.410;8.698;2022-12-07T05:28:54;11.43;;;10.40;;
10493;SDS011;5294;49.410;8.698;2022-12-07T05:31:20;10.73;;;9.83;;
10493;SDS011;5294;49.410;8.698;2022-12-07T05:33:46;11.43;;;10.40;;
10493;SDS011;5294;49.410;8.698;2022-12-07T05:36:12;11.03;;;10.03;;
10493;SDS011;5294;49.410;8.698;2022-12-07T05:38:39;10.20;;;9.30;;
10493;SDS011;5294;49.410;8.698;2022-12-07T05:41:08;10.97;;;10.07;;
10493;SDS011;5294;49.410;8.698;2022-12-07T05:43:57;10.83;;;9.83;;
10493;SDS011;5294;49.410;8.698;2022-12-07T05:46:23;10.27;;;9.37;;
10493;SDS011;5294;49.410;8.698;2022-12-07T05:48:51;11.23;;;10.23;;
10493;SDS011;5294;49.410;8.698;2022-12-07T05:51:17;11.60;;;10.60;;
10493;SDS011;5294;49.410;8.698;2022-12-07T05:53:43;11.20;;;10.20;;
10493;SDS011;5294;49.410;8.698;2022-12-07T05:56:09;11.50;;;10.50;;
10493;SDS011;5294;49.410;8.698;2022-12-07T05:58:38;11.93;;;10.83;;
10493;SDS011;5294;49.410;8.698;2022-12-07T06:01:25;11.43;;;10.47;;
10493;SDS011;5294;49.410;8.698;2022-12-07T06:03:53;12.37;;;11.17;;
10493;SDS011;5294;49.410;8.698;2022-12-07T06:06:21;12.37;;;10.67;;
10493;SDS011;5294;49.410;8.698;2022-12-07T06:08:47;12.73;;;11.50;;
10493;SDS011;5294;49.410;8.698;2022-12-07T06:11:16;15.27;;;13.67;;
10493;SDS011;5294;49.410;8.698;2022-12-07T06:14:00;13.80;;;12.50;;
10493;SDS011;5294;49.410;8.698;2022-12-07T06:16:26;14.23;;;12.73;;
10493;SDS011;5294;49.410;8.698;2022-12-07T06:18:55;16.93;;;13.47;;
10493;SDS011;5294;49.410;8.698;2022-12-07T06:21:21;12.70;;;11.50;;
10493;SDS011;5294;49.410;8.698;2022-12-07T06:23:47;12.83;;;11.63;;
10493;SDS011;5294;49.410;8.698;2022-12-07T06:26:15;12.10;;;10.90;;
10493;SDS011;5294;49.410;8.698;2022-12-07T06:28:41;13.83;;;12.00;;
10493;SDS011;5294;49.410;8.698;2022-12-07T06:31:09;13.27;;;11.97;;
10493;SDS011;5294;49.410;8.698;2022-12-07T06:33:35;13.90;;;12.60;;
10493;SDS011;5294;49.410;8.698;2022-12-07T06:36:04;13.60;;;12.30;;
10493;SDS011;5294;49.410;8.698;2022-12-07T06:38:30;13.70;;;12.30;;
10493;SDS011;5294;49.410;8.698;2022-12-07T06:40:56;12.57;;;11.47;;
10493;SDS011;5294;49.410;8.698;2022-12-07T06:43:22;13.10;;;11.87;;
10493;SDS011;5294;49.410;8.698;2022-12-07T06:45:48;26.20;;;15.93;;
10493;SDS011;5294;49.410;8.698;2022-12-07T06:48:16;14.07;;;12.77;;
10493;SDS011;5294;49.410;8.698;2022-12-07T06:50:44;13.23;;;11.97;;
10493;SDS011;5294;49.410;8.698;2022-12-07T06:53:10;13.57;;;12.30;;
10493;SDS011;5294;49.410;8.698;2022-12-07T06:55:36;12.90;;;11.70;;
10493;SDS011;5294;49.410;8.698;2022-12-07T06:58:02;12.33;;;11.17;;
10493;SDS011;5294;49.410;8.698;2022-12-07T07:00:33;12.43;;;11.17;;
10493;SDS011;5294;49.410;8.698;2022-12-07T07:03:03;12.43;;;11.17;;
10493;SDS011;5294;49.410;8.698;2022-12-07T07:05:29;13.00;;;11.80;;
10493;SDS011;5294;49.410;8.698;2022-12-07T07:07:55;13.73;;;12.37;;
10493;SDS011;5294;49.410;8.698;2022-12-07T07:10:21;14.33;;;12.87;;
10493;SDS011;5294;49.410;8.698;2022-12-07T07:12:47;15.13;;;12.90;;
10493;SDS011;5294;49.410;8.698;2022-12-07T07:15:13;13.53;;;12.30;;
10493;SDS011;5294;49.410;8.698;2022-12-07T07:17:39;14.27;;;12.87;;
10493;SDS011;5294;49.410;8.698;2022-12-07T07:20:05;14.60;;;12.90;;
10493;SDS011;5294;49.410;8.698;2022-12-07T07:22:34;14.20;;;12.70;;
10493;SDS011;5294;49.410;8.698;2022-12-07T07:25:00;14.03;;;12.83;;
10493;SDS011;5294;49.410;8.698;2022-12-07T07:27:26;13.87;;;12.57;;
10493;SDS011;5294;49.410;8.698;2022-12-07T07:29:57;15.03;;;13.53;;
10493;SDS011;5294;49.410;8.698;2022-12-07T07:32:25;15.50;;;13.90;;
10493;SDS011;5294;49.410;8.698;2022-12-07T07:34:52;15.03;;;13.37;;
10493;SDS011;5294;49.410;8.698;2022-12-07T07:37:20;15.63;;;13.70;;
10493;SDS011;5294;49.410;8.698;2022-12-07T07:39:46;14.03;;;12.73;;
10493;SDS011;5294;49.410;8.698;2022-12-07T07:42:12;15.30;;;13.90;;
10493;SDS011;5294;49.410;8.698;2022-12-07T07:44:38;16.07;;;14.57;;
10493;SDS011;5294;49.410;8.698;2022-12-07T07:47:04;14.80;;;13.40;;
10493;SDS011;5294;49.410;8.698;2022-12-07T07:49:30;14.53;;;13.03;;
10493;SDS011;5294;49.410;8.698;2022-12-07T07:51:56;16.00;;;14.40;;
10493;SDS011;5294;49.410;8.698;2022-12-07T07:54:22;15.27;;;13.67;;
10493;SDS011;5294;49.410;8.698;2022-12-07T07:56:51;20.73;;;14.47;;
10493;SDS011;5294;49.410;8.698;2022-12-07T07:59:17;15.23;;;12.40;;
10493;SDS011;5294;49.410;8.698;2022-12-07T08:01:43;19.63;;;13.87;;
10493;SDS011;5294;49.410;8.698;2022-12-07T08:04:11;28.47;;;14.97;;
10493;SDS011;5294;49.410;8.698;2022-12-07T08:06:40;16.37;;;13.90;;
10493;SDS011;5294;49.410;8.698;2022-12-07T08:09:07;16.67;;;13.50;;
10493;SDS011;5294;49.410;8.698;2022-12-07T08:11:33;15.77;;;14.13;;
10493;SDS011;5294;49.410;8.698;2022-12-07T08:13:59;13.40;;;12.10;;
10493;SDS011;5294;49.410;8.698;2022-12-07T08:16:25;12.53;;;11.33;;
10493;SDS011;5294;49.410;8.698;2022-12-07T08:18:51;19.23;;;13.90;;
10493;SDS011;5294;49.410;8.698;2022-12-07T08:21:17;15.83;;;13.50;;
10493;SDS011;5294;49.410;8.698;2022-12-07T08:23:43;20.47;;;13.90;;
10493;SDS011;5294;49.410;8.698;2022-12-07T08:26:10;17.83;;;13.50;;
10493;SDS011;5294;49.410;8.698;2022-12-07T08:28:37;13.87;;;12.57;;
10493;SDS011;5294;49.410;8.698;2022-12-07T08:31:04;13.33;;;12.03;;
10493;SDS011;5294;49.410;8.698;2022-12-07T08:33:30;14.00;;;12.70;;
10493;SDS011;5294;49.410;8.698;2022-12-07T08:36:06;14.37;;;12.87;;
10493;SDS011;5294;49.410;8.698;2022-12-07T08:38:36;14.00;;;12.60;;
10493;SDS011;5294;49.410;8.698;2022-12-07T08:41:02;14.17;;;12.60;;
10493;SDS011;5294;49.410;8.698;2022-12-07T08:43:28;14.50;;;13.00;;
10493;SDS011;5294;49.410;8.698;2022-12-07T08:48:33;15.37;;;13.77;;
10493;SDS011;5294;49.410;8.698;2022-12-07T08:51:03;14.37;;;13.00;;
10493;SDS011;5294;49.410;8.698;2022-12-07T08:53:32;14.90;;;13.27;;
10493;SDS011;5294;49.410;8.698;2022-12-07T08:55:59;13.90;;;12.40;;
10493;SDS011;5294;49.410;8.698;2022-12-07T08:58:27;16.77;;;15.07;;
10493;SDS011;5294;49.410;8.698;2022-12-07T09:00:53;15.73;;;14.13;;
10493;SDS011;5294;49.410;8.698;2022-12-07T09:03:22;15.77;;;14.37;;
10493;SDS011;5294;49.410;8.698;2022-12-07T09:05:48;15.97;;;14.37;;
10493;SDS011;5294;49.410;8.698;2022-12-07T09:08:16;17.27;;;15.27;;
10493;SDS011;5294;49.410;8.698;2022-12-07T09:10:42;18.00;;;16.07;;
10493;SDS011;5294;49.410;8.698;2022-12-07T09:13:08;23.37;;;17.63;;
10493;SDS011;5294;49.410;8.698;2022-12-07T09:15:34;18.13;;;16.37;;
10493;SDS011;5294;49.410;8.698;2022-12-07T09:18:00;22.50;;;16.80;;
10493;SDS011;5294;49.410;8.698;2022-12-07T09:20:26;19.60;;;15.67;;
10493;SDS011;5294;49.410;8.698;2022-12-07T09:22:52;24.50;;;16.50;;
10493;SDS011;5294;49.410;8.698;2022-12-07T09:25:18;16.50;;;14.00;;
10493;SDS011;5294;49.410;8.698;2022-12-07T09:27:44;15.40;;;13.80;;
10493;SDS011;5294;49.410;8.698;2022-12-07T09:30:10;16.47;;;14.37;;
10493;SDS011;5294;49.410;8.698;2022-12-07T09:32:36;16.70;;;15.03;;
10493;SDS011;5294;49.410;8.698;2022-12-07T09:35:02;16.50;;;14.67;;
10493;SDS011;5294;49.410;8.698;2022-12-07T09:37:28;20.77;;;16.10;;
10493;SDS011;5294;49.410;8.698;2022-12-07T09:39:54;17.43;;;14.30;;
10493;SDS011;5294;49.410;8.698;2022-12-07T09:44:46;17.13;;;15.33;;
10493;SDS011;5294;49.410;8.698;2022-12-07T09:47:12;15.87;;;14.27;;
10493;SDS011;5294;49.410;8.698;2022-12-07T09:49:38;18.73;;;14.93;;
10493;SDS011;5294;49.410;8.698;2022-12-07T09:54:30;19.27;;;15.90;;
10493;SDS011;5294;49.410;8.698;2022-12-07T09:56:56;16.57;;;14.90;;
10493;SDS011;5294;49.410;8.698;2022-12-07T09:59:24;16.60;;;14.80;;
10493;SDS011;5294;49.410;8.698;2022-12-07T10:01:50;16.13;;;14.43;;
10493;SDS011;5294;49.410;8.698;2022-12-07T10:04:21;16.80;;;15.20;;
10493;SDS011;5294;49.410;8.698;2022-12-07T10:06:48;17.60;;;14.97;;
10493;SDS011;5294;49.410;8.698;2022-12-07T10:09:16;18.70;;;15.00;;
10493;SDS011;5294;49.410;8.698;2022-12-07T10:14:28;18.87;;;15.47;;
10493;SDS011;5294;49.410;8.698;2022-12-07T10:16:54;17.97;;;16.17;;
10493;SDS011;5294;49.410;8.698;2022-12-07T10:21:58;18.83;;;16.03;;
10493;SDS011;5294;49.410;8.698;2022-12-07T10:24:24;21.03;;;18.03;;
10493;SDS011;5294;49.410;8.698;2022-12-07T10:26:53;21.57;;;16.37;;
10493;SDS011;5294;49.410;8.698;2022-12-07T10:29:33;16.40;;;14.70;;
10493;SDS011;5294;49.410;8.698;2022-12-07T10:32:02;16.40;;;14.90;;
10493;SDS011;5294;49.410;8.698;2022-12-07T10:34:30;17.70;;;15.20;;
10493;SDS011;5294;49.410;8.698;2022-12-07T10:40:02;16.83;;;15.17;;
10493;SDS011;5294;49.410;8.698;2022-12-07T10:42:30;16.70;;;15.10;;
10493;SDS011;5294;49.410;8.698;2022-12-07T10:47:48;16.90;;;15.20;;
10493;SDS011;5294;49.410;8.698;2022-12-07T10:58:22;18.33;;;16.33;;
10493;SDS011;5294;49.410;8.698;2022-12-07T11:03:37;16.67;;;15.10;;
10493;SDS011;5294;49.410;8.698;2022-12-07T11:08:47;17.37;;;15.67;;
10493;SDS011;5294;49.410;8.698;2022-12-07T11:11:18;16.83;;;15.13;;
10493;SDS011;5294;49.410;8.698;2022-12-07T11:13:55;16.33;;;14.73;;
10493;SDS011;5294;49.410;8.698;2022-12-07T11:22:16;18.17;;;15.93;;
10493;SDS011;5294;49.410;8.698;2022-12-07T11:37:49;17.93;;;15.50;;
10493;SDS011;5294;49.410;8.698;2022-12-07T11:40:36;18.50;;;16.53;;
10493;SDS011;5294;49.410;8.698;2022-12-07T11:45:44;17.50;;;15.67;;
10493;SDS011;5294;49.410;8.698;2022-12-07T11:48:14;20.90;;;15.73;;
10493;SDS011;5294;49.410;8.698;2022-12-07T11:53:18;21.07;;;16.13;;
10493;SDS011;5294;49.410;8.698;2022-12-07T11:55:54;17.57;;;15.53;;
10493;SDS011;5294;49.410;8.698;2022-12-07T12:03:52;20.83;;;16.30;;
10493;SDS011;5294;49.410;8.698;2022-12-07T12:06:19;18.40;;;16.40;;
10493;SDS011;5294;49.410;8.698;2022-12-07T12:11:17;18.03;;;16.13;;
10493;SDS011;5294;49.410;8.698;2022-12-07T12:19:03;19.23;;;17.13;;
10493;SDS011;5294;49.410;8.698;2022-12-07T12:21:33;18.80;;;16.13;;
10493;SDS011;5294;49.410;8.698;2022-12-07T12:24:02;19.80;;;15.90;;
10493;SDS011;5294;49.410;8.698;2022-12-07T12:26:32;17.77;;;15.83;;
10493;SDS011;5294;49.410;8.698;2022-12-07T12:28:59;17.83;;;16.17;;
10493;SDS011;5294;49.410;8.698;2022-12-07T12:34:00;17.80;;;16.00;;
10493;SDS011;5294;49.410;8.698;2022-12-07T12:51:42;17.67;;;15.97;;
10493;SDS011;5294;49.410;8.698;2022-12-07T12:54:11;16.83;;;15.17;;
10493;SDS011;5294;49.410;8.698;2022-12-07T13:01:50;17.27;;;15.40;;
10493;SDS011;5294;49.410;8.698;2022-12-07T13:04:27;16.80;;;15.00;;
10493;SDS011;5294;49.410;8.698;2022-12-07T13:06:55;16.50;;;13.70;;
10493;SDS011;5294;49.410;8.698;2022-12-07T13:09:24;14.07;;;12.67;;
10493;SDS011;5294;49.410;8.698;2022-12-07T13:11:56;14.30;;;12.80;;
10493;SDS011;5294;49.410;8.698;2022-12-07T13:20:00;9.93;;;8.93;;
10493;SDS011;5294;49.410;8.698;2022-12-07T13:27:34;8.37;;;7.57;;
10493;SDS011;5294;49.410;8.698;2022-12-07T13:30:04;9.27;;;6.87;;
10493;SDS011;5294;49.410;8.698;2022-12-07T13:32:35;10.17;;;6.67;;
10493;SDS011;5294;49.410;8.698;2022-12-07T13:35:01;10.73;;;7.40;;
10493;SDS011;5294;49.410;8.698;2022-12-07T13:37:47;10.47;;;7.87;;
10493;SDS011;5294;49.410;8.698;2022-12-07T13:40:17;12.90;;;7.40;;
10493;SDS011;5294;49.410;8.698;2022-12-07T13:42:46;10.07;;;6.80;;
10493;SDS011;5294;49.410;8.698;2022-12-07T13:47:56;7.20;;;6.50;;
10493;SDS011;5294;49.410;8.698;2022-12-07T13:50:31;14.50;;;7.63;;
10493;SDS011;5294;49.410;8.698;2022-12-07T13:52:58;8.60;;;6.97;;
10493;SDS011;5294;49.410;8.698;2022-12-07T13:55:24;8.57;;;7.07;;
10493;SDS011;5294;49.410;8.698;2022-12-07T13:57:51;7.20;;;6.50;;
10493;SDS011;5294;49.410;8.698;2022-12-07T14:00:21;8.60;;;6.70;;
10493;SDS011;5294;49.410;8.698;2022-12-07T14:02:55;9.13;;;6.60;;
10493;SDS011;5294;49.410;8.698;2022-12-07T14:05:25;9.63;;;7.57;;
10493;SDS011;5294;49.410;8.698;2022-12-07T14:10:23;10.57;;;7.00;;
10493;SDS011;5294;49.410;8.698;2022-12-07T14:12:50;10.90;;;7.33;;
10493;SDS011;5294;49.410;8.698;2022-12-07T14:15:22;10.23;;;7.57;;
10493;SDS011;5294;49.410;8.698;2022-12-07T14:17:49;7.40;;;6.63;;
10493;SDS011;5294;49.410;8.698;2022-12-07T14:22:55;10.83;;;6.87;;
10493;SDS011;5294;49.410;8.698;2022-12-07T14:25:22;7.40;;;6.70;;
10493;SDS011;5294;49.410;8.698;2022-12-07T14:30:20;11.07;;;8.57;;
10493;SDS011;5294;49.410;8.698;2022-12-07T14:32:52;14.43;;;9.67;;
10493;SDS011;5294;49.410;8.698;2022-12-07T14:35:18;10.13;;;8.87;;
10493;SDS011;5294;49.410;8.698;2022-12-07T14:37:46;12.97;;;10.47;;
10493;SDS011;5294;49.410;8.698;2022-12-07T14:42:44;11.67;;;10.47;;
10493;SDS011;5294;49.410;8.698;2022-12-07T14:45:15;13.17;;;10.97;;
10493;SDS011;5294;49.410;8.698;2022-12-07T14:47:44;12.90;;;11.60;;
10493;SDS011;5294;49.410;8.698;2022-12-07T14:50:11;13.80;;;11.43;;
10493;SDS011;5294;49.410;8.698;2022-12-07T14:52:38;15.10;;;12.07;;
10493;SDS011;5294;49.410;8.698;2022-12-07T14:55:05;14.17;;;11.93;;
10493;SDS011;5294;49.410;8.698;2022-12-07T14:57:31;19.03;;;12.73;;
10493;SDS011;5294;49.410;8.698;2022-12-07T14:59:57;19.33;;;13.83;;
10493;SDS011;5294;49.410;8.698;2022-12-07T15:02:23;17.70;;;13.13;;
10493;SDS011;5294;49.410;8.698;2022-12-07T15:04:51;18.20;;;13.33;;
10493;SDS011;5294;49.410;8.698;2022-12-07T15:07:20;15.57;;;13.03;;
10493;SDS011;5294;49.410;8.698;2022-12-07T15:09:47;14.60;;;12.77;;
10493;SDS011;5294;49.410;8.698;2022-12-07T15:12:13;13.70;;;12.30;;
10493;SDS011;5294;49.410;8.698;2022-12-07T15:14:39;15.67;;;14.00;;
10493;SDS011;5294;49.410;8.698;2022-12-07T15:17:05;24.07;;;15.10;;
10493;SDS011;5294;49.410;8.698;2022-12-07T15:19:33;16.37;;;13.63;;
10493;SDS011;5294;49.410;8.698;2022-12-07T15:21:59;15.00;;;13.40;;
10493;SDS011;5294;49.410;8.698;2022-12-07T15:24:26;15.03;;;13.50;;
10493;SDS011;5294;49.410;8.698;2022-12-07T15:26:52;14.90;;;12.33;;
10493;SDS011;5294;49.410;8.698;2022-12-07T15:29:18;18.73;;;13.50;;
10493;SDS011;5294;49.410;8.698;2022-12-07T15:31:44;13.60;;;12.20;;
10493;SDS011;5294;49.410;8.698;2022-12-07T15:34:10;13.23;;;11.93;;
10493;SDS011;5294;49.410;8.698;2022-12-07T15:36:36;13.50;;;12.20;;
10493;SDS011;5294;49.410;8.698;2022-12-07T15:39:02;21.50;;;14.00;;
10493;SDS011;5294;49.410;8.698;2022-12-07T15:41:28;22.10;;;14.10;;
10493;SDS011;5294;49.410;8.698;2022-12-07T15:43:57;15.30;;;13.47;;
10493;SDS011;5294;49.410;8.698;2022-12-07T15:46:41;19.93;;;13.70;;
10493;SDS011;5294;49.410;8.698;2022-12-07T15:49:14;16.43;;;13.87;;
10493;SDS011;5294;49.410;8.698;2022-12-07T15:51:41;16.13;;;12.37;;
10493;SDS011;5294;49.410;8.698;2022-12-07T15:54:09;15.23;;;12.63;;
10493;SDS011;5294;49.410;8.698;2022-12-07T15:56:37;14.00;;;12.10;;
10493;SDS011;5294;49.410;8.698;2022-12-07T15:59:03;20.60;;;13.07;;
10493;SDS011;5294;49.410;8.698;2022-12-07T16:01:31;14.77;;;13.27;;
10493;SDS011;5294;49.410;8.698;2022-12-07T16:03:57;13.63;;;12.07;;
10493;SDS011;5294;49.410;8.698;2022-12-07T16:06:24;14.90;;;12.53;;
10493;SDS011;5294;49.410;8.698;2022-12-07T16:08:50;14.53;;;12.47;;
10493;SDS011;5294;49.410;8.698;2022-12-07T16:11:16;13.67;;;11.80;;
10493;SDS011;5294;49.410;8.698;2022-12-07T16:13:44;13.97;;;12.30;;
10493;SDS011;5294;49.410;8.698;2022-12-07T16:16:13;15.17;;;13.63;;
10493;SDS011;5294;49.410;8.698;2022-12-07T16:18:41;13.77;;;12.37;;
10493;SDS011;5294;49.410;8.698;2022-12-07T16:21:07;14.27;;;11.90;;
10493;SDS011;5294;49.410;8.698;2022-12-07T16:23:36;14.73;;;13.23;;
10493;SDS011;5294;49.410;8.698;2022-12-07T16:26:05;15.43;;;12.97;;
10493;SDS011;5294;49.410;8.698;2022-12-07T16:28:31;14.37;;;12.20;;
10493;SDS011;5294;49.410;8.698;2022-12-07T16:31:05;16.33;;;12.80;;
10493;SDS011;5294;49.410;8.698;2022-12-07T16:33:32;16.00;;;13.93;;
10493;SDS011;5294;49.410;8.698;2022-12-07T16:36:00;14.17;;;12.77;;
10493;SDS011;5294;49.410;8.698;2022-12-07T16:38:26;14.07;;;12.60;;
10493;SDS011;5294;49.410;8.698;2022-12-07T16:40:55;14.83;;;13.23;;
10493;SDS011;5294;49.410;8.698;2022-12-07T16:43:23;13.77;;;12.40;;
10493;SDS011;5294;49.410;8.698;2022-12-07T16:45:52;12.80;;;11.60;;
10493;SDS011;5294;49.410;8.698;2022-12-07T16:48:18;12.73;;;11.43;;
10493;SDS011;5294;49.410;8.698;2022-12-07T16:50:44;13.67;;;12.20;;
10493;SDS011;5294;49.410;8.698;2022-12-07T16:53:13;12.50;;;11.23;;
10493;SDS011;5294;49.410;8.698;2022-12-07T16:55:44;13.10;;;11.77;;
10493;SDS011;5294;49.410;8.698;2022-12-07T16:58:15;13.23;;;11.83;;
10493;SDS011;5294;49.410;8.698;2022-12-07T17:00:42;14.23;;;12.07;;
10493;SDS011;5294;49.410;8.698;2022-12-07T17:03:09;14.20;;;12.90;;